Terminal Aerodrome Forecast
Issued by NWS Chicago, IL

Home | Current Version | Previous Version | Text Only | Print | Product List | Glossary Off
Versions: 1 2 3 4 5 6 7 8 9 10 11 12 13 14 15 16 17 18 19 20 21 22 23 24 25 26 27 28 29 30 31

000
FTUS43 KLOT 151600 AAB
TAFRFD
TAF AMD
KRFD 151616Z 1516/1612 VRB04KT P6SM OVC060
     FM151800 34008KT 6SM -SHRA SCT010 BKN018 OVC035
     FM152000 35011KT P6SM SCT012 BKN020 BKN040
     FM160000 30006KT P6SM SCT015=

USA.gov is the U.S. government's official web portal to all federal, state and local government web resources and services.